Snow/Ice From: 17-12-2017 10:00 Until: 18-12-2017 06:00 warning for: Snow/Ice Level: Yellow info button

Although rather usual in this region, locally or potentially dangerous phenomena are expected. (such as local winds, summer thunderstorms, rising streams or high waves) Be aware and pay attention to the latest weather updates, especially if you carry out activities exposed to weather or close to a stream or shoreline. 


Meteo18 Weather Cam more information Meteo18 Weather Cam


Thunder radar more information blitzortung!


warning for Snow/Ice more information rain snow radar


Visit our other weather sites:

Template documentation
and downloads

And another site



Weather Underground History page Text

Daily Summary for February 23, 2017 Units:  Both    English   Metric
« Previous Day
Next Day »
Daily Weekly Monthly Yearly Custom
  High: Low: Average:
Temperature: 48.6 °F /  9.2 °C 44.1 °F /  6.7 °C 46.2 °F /  7.9 °C
Dew Point: 46.6 °F /  8.1 °C 39.9 °F /  4.4 °C 43 °F /  6.1 °C
Humidity: 95 % 80 % 89 %
Wind Speed: 23 mph /  37.0 km/h - 8.1 mph /  13 km/h
Wind Gust: 30 mph /  48.3 km/h - -
Wind:- - WSW
Pressure: 30.1 in /  1017.8 hPa 29.8 in /  1009.4 hPa -
Precipitation: 0.17 in /  4.3 mm    
Historical Graphs
 
 
Tabular Data for February 23, 2017
Time Temperature Dew Point Pressure Wind Wind Speed Wind Gust Humidity Rainfall Rate (Hourly)
00:02 47.1 °F /  8.4 °C 43.7 °F /  6.5 °C 30.1 in /  1017.8 hPa WSW 3 mph /  4.8 km/h 13 mph /  20.9 km/h 88 % 0 in /  0.0 mm
00:12 46.9 °F /  8.3 °C 43.3 °F /  6.3 °C 30.1 in /  1017.8 hPa WSW 12 mph /  19.3 km/h 13 mph /  20.9 km/h 87 % 0 in /  0.0 mm
00:17 46.9 °F /  8.3 °C 43.3 °F /  6.3 °C 30.1 in /  1017.8 hPa SSW 1 mph /  1.6 km/h 10 mph /  16.1 km/h 87 % 0 in /  0.0 mm
00:22 46.9 °F /  8.3 °C 43.5 °F /  6.4 °C 30.1 in /  1017.8 hPa SW 7 mph /  11.3 km/h 12 mph /  19.3 km/h 88 % 0 in /  0.0 mm
00:27 46.9 °F /  8.3 °C 43.5 °F /  6.4 °C 30.1 in /  1017.8 hPa SSW 3 mph /  4.8 km/h 12 mph /  19.3 km/h 88 % 0 in /  0.0 mm
00:32 46.8 °F /  8.2 °C 43.3 °F /  6.3 °C 30.1 in /  1017.8 hPa SSW 2 mph /  3.2 km/h 10 mph /  16.1 km/h 88 % 0 in /  0.0 mm
00:37 46.8 °F /  8.2 °C 43.3 °F /  6.3 °C 30.1 in /  1017.8 hPa West 5 mph /  8.0 km/h 10 mph /  16.1 km/h 88 % 0 in /  0.0 mm
00:42 46.8 °F /  8.2 °C 43.2 °F /  6.2 °C 30.1 in /  1017.8 hPa SSW 2 mph /  3.2 km/h 12 mph /  19.3 km/h 87 % 0 in /  0.0 mm
00:47 46.8 °F /  8.2 °C 43.2 °F /  6.2 °C 30.1 in /  1017.5 hPa WSW 8 mph /  12.9 km/h 12 mph /  19.3 km/h 87 % 0 in /  0.0 mm
00:52 46.9 °F /  8.3 °C 43.3 °F /  6.3 °C 30.1 in /  1017.5 hPa South 4 mph /  6.4 km/h 12 mph /  19.3 km/h 87 % 0 in /  0.0 mm
00:57 46.8 °F /  8.2 °C 43.2 °F /  6.2 °C 30.1 in /  1017.8 hPa SSW 3 mph /  4.8 km/h 13 mph /  20.9 km/h 87 % 0 in /  0.0 mm
01:02 46.8 °F /  8.2 °C 43.3 °F /  6.3 °C 30.1 in /  1017.8 hPa SSW 1 mph /  1.6 km/h 13 mph /  20.9 km/h 88 % 0 in /  0.0 mm
01:07 46.6 °F /  8.1 °C 43.2 °F /  6.2 °C 30.1 in /  1017.5 hPa SW 4 mph /  6.4 km/h 6 mph /  9.7 km/h 88 % 0 in /  0.0 mm
01:12 46.6 °F /  8.1 °C 43.2 °F /  6.2 °C 30.1 in /  1017.5 hPa SW 6 mph /  9.7 km/h 6 mph /  9.7 km/h 88 % 0 in /  0.0 mm
01:17 46.6 °F /  8.1 °C 43.2 °F /  6.2 °C 30.1 in /  1017.5 hPa South 2 mph /  3.2 km/h 11 mph /  17.7 km/h 88 % 0 in /  0.0 mm
01:22 46.6 °F /  8.1 °C 43.2 °F /  6.2 °C 30.1 in /  1017.5 hPa SW 4 mph /  6.4 km/h 11 mph /  17.7 km/h 88 % 0 in /  0.0 mm
01:32 46.6 °F /  8.1 °C 43 °F /  6.1 °C 30.1 in /  1017.5 hPa WSW 3 mph /  4.8 km/h 10 mph /  16.1 km/h 87 % 0 in /  0.0 mm
01:42 46.6 °F /  8.1 °C 43 °F /  6.1 °C 30.1 in /  1017.5 hPa SSE 4 mph /  6.4 km/h 10 mph /  16.1 km/h 87 % 0 in /  0.0 mm
01:47 46.6 °F /  8.1 °C 43.2 °F /  6.2 °C 30 in /  1017.2 hPa SW 6 mph /  9.7 km/h 9 mph /  14.5 km/h 88 % 0 in /  0.0 mm
01:52 46.6 °F /  8.1 °C 43.2 °F /  6.2 °C 30 in /  1017.2 hPa South 2 mph /  3.2 km/h 9 mph /  14.5 km/h 88 % 0 in /  0.0 mm
01:57 46.4 °F /  8.0 °C 43 °F /  6.1 °C 30 in /  1017.2 hPa SW 5 mph /  8.0 km/h 9 mph /  14.5 km/h 88 % 0 in /  0.0 mm
02:02 46.2 °F /  7.9 °C 42.8 °F /  6.0 °C 30 in /  1017.2 hPa SW 5 mph /  8.0 km/h 9 mph /  14.5 km/h 88 % 0 in /  0.0 mm
02:07 46.2 °F /  7.9 °C 42.8 °F /  6.0 °C 30 in /  1017.2 hPa SW 8 mph /  12.9 km/h 9 mph /  14.5 km/h 88 % 0 in /  0.0 mm
02:12 46.2 °F /  7.9 °C 42.6 °F /  5.9 °C 30 in /  1017.2 hPa SW 3 mph /  4.8 km/h 9 mph /  14.5 km/h 87 % 0 in /  0.0 mm
02:17 46.2 °F /  7.9 °C 42.8 °F /  6.0 °C 30 in /  1016.8 hPa SE 7 mph /  11.3 km/h 13 mph /  20.9 km/h 88 % 0 in /  0.0 mm
02:22 46 °F /  7.8 °C 42.6 °F /  5.9 °C 30 in /  1017.2 hPa WSW 4 mph /  6.4 km/h 13 mph /  20.9 km/h 88 % 0 in /  0.0 mm
02:27 46 °F /  7.8 °C 42.6 °F /  5.9 °C 30 in /  1017.2 hPa West 8 mph /  12.9 km/h 13 mph /  20.9 km/h 88 % 0 in /  0.0 mm
02:32 46 °F /  7.8 °C 42.4 °F /  5.8 °C 30 in /  1017.2 hPa WSW 7 mph /  11.3 km/h 13 mph /  20.9 km/h 87 % 0 in /  0.0 mm
02:37 45.9 °F /  7.7 °C 42.4 °F /  5.8 °C 30 in /  1017.2 hPa SW 3 mph /  4.8 km/h 11 mph /  17.7 km/h 88 % 0 in /  0.0 mm
02:42 45.9 °F /  7.7 °C 42.4 °F /  5.8 °C 30 in /  1016.8 hPa WSW 4 mph /  6.4 km/h 11 mph /  17.7 km/h 88 % 0 in /  0.0 mm
02:47 45.9 °F /  7.7 °C 42.4 °F /  5.8 °C 30 in /  1016.8 hPa SW 4 mph /  6.4 km/h 9 mph /  14.5 km/h 88 % 0 in /  0.0 mm
02:52 45.7 °F /  7.6 °C 42.6 °F /  5.9 °C 30 in /  1016.5 hPa SSW 4 mph /  6.4 km/h 9 mph /  14.5 km/h 89 % 0 in /  0.0 mm
02:57 45.7 °F /  7.6 °C 42.6 °F /  5.9 °C 30 in /  1016.5 hPa SW 3 mph /  4.8 km/h 9 mph /  14.5 km/h 89 % 0 in /  0.0 mm
03:02 45.5 °F /  7.5 °C 42.4 °F /  5.8 °C 30 in /  1016.5 hPa West 6 mph /  9.7 km/h 9 mph /  14.5 km/h 89 % 0 in /  0.0 mm
03:07 45.5 °F /  7.5 °C 42.4 °F /  5.8 °C 30 in /  1016.5 hPa SW 4 mph /  6.4 km/h 7 mph /  11.3 km/h 89 % 0 in /  0.0 mm
03:12 45.3 °F /  7.4 °C 42.3 °F /  5.7 °C 30 in /  1016.1 hPa SSW 4 mph /  6.4 km/h 7 mph /  11.3 km/h 89 % 0 in /  0.0 mm
03:17 45.1 °F /  7.3 °C 42.4 °F /  5.8 °C 30 in /  1016.1 hPa SSW 4 mph /  6.4 km/h 8 mph /  12.9 km/h 90 % 0 in /  0.0 mm
03:22 45.1 °F /  7.3 °C 42.4 °F /  5.8 °C 30 in /  1016.1 hPa SW 6 mph /  9.7 km/h 8 mph /  12.9 km/h 90 % 0 in /  0.0 mm
03:27 45 °F /  7.2 °C 42.3 °F /  5.7 °C 30 in /  1016.1 hPa SSW 7 mph /  11.3 km/h 9 mph /  14.5 km/h 90 % 0 in /  0.0 mm
03:32 45 °F /  7.2 °C 42.3 °F /  5.7 °C 30 in /  1016.1 hPa SSW 4 mph /  6.4 km/h 9 mph /  14.5 km/h 90 % 0 in /  0.0 mm
03:42 44.8 °F /  7.1 °C 42.1 °F /  5.6 °C 30 in /  1015.8 hPa SSW 5 mph /  8.0 km/h 10 mph /  16.1 km/h 90 % 0 in /  0.0 mm
03:52 44.8 °F /  7.1 °C 42.1 °F /  5.6 °C 30 in /  1015.5 hPa SSW 4 mph /  6.4 km/h 11 mph /  17.7 km/h 90 % 0 in /  0.0 mm
03:57 44.8 °F /  7.1 °C 42.1 °F /  5.6 °C 30 in /  1015.5 hPa SSW 7 mph /  11.3 km/h 11 mph /  17.7 km/h 90 % 0 in /  0.0 mm
04:02 44.6 °F /  7.0 °C 42.1 °F /  5.6 °C 30 in /  1015.5 hPa SW 7 mph /  11.3 km/h 11 mph /  17.7 km/h 91 % 0 in /  0.0 mm
04:07 44.6 °F /  7.0 °C 42.1 °F /  5.6 °C 30 in /  1015.5 hPa SW 7 mph /  11.3 km/h 11 mph /  17.7 km/h 91 % 0 in /  0.0 mm
04:12 44.6 °F /  7.0 °C 42.1 °F /  5.6 °C 30 in /  1015.1 hPa South 4 mph /  6.4 km/h 11 mph /  17.7 km/h 91 % 0 in /  0.0 mm
04:17 44.6 °F /  7.0 °C 41.9 °F /  5.5 °C 30 in /  1015.1 hPa SSW 5 mph /  8.0 km/h 11 mph /  17.7 km/h 90 % 0 in /  0.0 mm
04:22 44.6 °F /  7.0 °C 41.9 °F /  5.5 °C 30 in /  1015.1 hPa SSW 6 mph /  9.7 km/h 11 mph /  17.7 km/h 90 % 0 in /  0.0 mm
04:32 44.8 °F /  7.1 °C 41.7 °F /  5.4 °C 30 in /  1015.1 hPa SSW 4 mph /  6.4 km/h 11 mph /  17.7 km/h 89 % 0 in /  0.0 mm
04:37 44.8 °F /  7.1 °C 41.7 °F /  5.4 °C 30 in /  1014.8 hPa WSW 7 mph /  11.3 km/h 13 mph /  20.9 km/h 89 % 0 in /  0.0 mm
04:42 44.8 °F /  7.1 °C 41.7 °F /  5.4 °C 30 in /  1014.8 hPa SW 9 mph /  14.5 km/h 13 mph /  20.9 km/h 89 % 0 in /  0.0 mm
04:47 44.6 °F /  7.0 °C 41.5 °F /  5.3 °C 30 in /  1014.8 hPa WSW 8 mph /  12.9 km/h 14 mph /  22.5 km/h 89 % 0 in /  0.0 mm
04:52 44.4 °F /  6.9 °C 41.4 °F /  5.2 °C 30 in /  1014.4 hPa SW 8 mph /  12.9 km/h 14 mph /  22.5 km/h 89 % 0 in /  0.0 mm
05:02 44.4 °F /  6.9 °C 41.7 °F /  5.4 °C 30 in /  1014.4 hPa SSW 10 mph /  16.1 km/h 14 mph /  22.5 km/h 90 % 0 in /  0.0 mm
05:07 44.4 °F /  6.9 °C 41.7 °F /  5.4 °C 30 in /  1014.4 hPa SW 10 mph /  16.1 km/h 14 mph /  22.5 km/h 90 % 0 in /  0.0 mm
05:12 44.2 °F /  6.8 °C 41.5 °F /  5.3 °C 30 in /  1014.4 hPa SSW 6 mph /  9.7 km/h 14 mph /  22.5 km/h 90 % 0 in /  0.0 mm
05:17 44.2 °F /  6.8 °C 41.5 °F /  5.3 °C 30 in /  1014.4 hPa SW 10 mph /  16.1 km/h 16 mph /  25.7 km/h 90 % 0 in /  0.0 mm
05:22 44.2 °F /  6.8 °C 41.5 °F /  5.3 °C 30 in /  1014.4 hPa SW 5 mph /  8.0 km/h 16 mph /  25.7 km/h 90 % 0 in /  0.0 mm
05:32 44.2 °F /  6.8 °C 41.5 °F /  5.3 °C 29.9 in /  1014.1 hPa SW 8 mph /  12.9 km/h 12 mph /  19.3 km/h 90 % 0 in /  0.0 mm
05:42 44.2 °F /  6.8 °C 41.5 °F /  5.3 °C 29.9 in /  1014.1 hPa SW 10 mph /  16.1 km/h 18 mph /  29.0 km/h 90 % 0 in /  0.0 mm
05:52 44.2 °F /  6.8 °C 41.5 °F /  5.3 °C 29.9 in /  1014.1 hPa SSW 5 mph /  8.0 km/h 18 mph /  29.0 km/h 90 % 0 in /  0.0 mm
06:02 44.2 °F /  6.8 °C 41.5 °F /  5.3 °C 29.9 in /  1013.8 hPa SW 8 mph /  12.9 km/h 15 mph /  24.1 km/h 90 % 0 in /  0.0 mm
06:12 44.2 °F /  6.8 °C 41.5 °F /  5.3 °C 29.9 in /  1013.8 hPa SW 10 mph /  16.1 km/h 12 mph /  19.3 km/h 90 % 0 in /  0.0 mm
06:17 44.2 °F /  6.8 °C 41.5 °F /  5.3 °C 29.9 in /  1013.8 hPa WSW 5 mph /  8.0 km/h 12 mph /  19.3 km/h 90 % 0 in /  0.0 mm
06:22 44.2 °F /  6.8 °C 41.5 °F /  5.3 °C 29.9 in /  1013.8 hPa SW 6 mph /  9.7 km/h 12 mph /  19.3 km/h 90 % 0 in /  0.0 mm
06:27 44.1 °F /  6.7 °C 41.4 °F /  5.2 °C 29.9 in /  1013.8 hPa SW 7 mph /  11.3 km/h 13 mph /  20.9 km/h 90 % 0 in /  0.0 mm
06:32 44.1 °F /  6.7 °C 41.4 °F /  5.2 °C 29.9 in /  1013.4 hPa SSW 6 mph /  9.7 km/h 13 mph /  20.9 km/h 90 % 0 in /  0.0 mm
06:42 44.1 °F /  6.7 °C 41.5 °F /  5.3 °C 29.9 in /  1013.4 hPa WSW 6 mph /  9.7 km/h 11 mph /  17.7 km/h 91 % 0 in /  0.0 mm
06:47 44.1 °F /  6.7 °C 41.4 °F /  5.2 °C 29.9 in /  1013.1 hPa SW 12 mph /  19.3 km/h 13 mph /  20.9 km/h 90 % 0 in /  0.0 mm
06:52 44.1 °F /  6.7 °C 41.4 °F /  5.2 °C 29.9 in /  1013.1 hPa SW 8 mph /  12.9 km/h 13 mph /  20.9 km/h 90 % 0 in /  0.0 mm
06:57 44.1 °F /  6.7 °C 41.4 °F /  5.2 °C 29.9 in /  1013.1 hPa SW 8 mph /  12.9 km/h 13 mph /  20.9 km/h 90 % 0 in /  0.0 mm
07:02 44.1 °F /  6.7 °C 41.5 °F /  5.3 °C 29.9 in /  1013.1 hPa SSW 4 mph /  6.4 km/h 13 mph /  20.9 km/h 91 % 0 in /  0.0 mm
07:12 44.1 °F /  6.7 °C 41.5 °F /  5.3 °C 29.9 in /  1013.1 hPa SW 11 mph /  17.7 km/h 12 mph /  19.3 km/h 91 % 0 in /  0.0 mm
07:17 44.1 °F /  6.7 °C 41.4 °F /  5.2 °C 29.9 in /  1013.1 hPa SW 8 mph /  12.9 km/h 12 mph /  19.3 km/h 90 % 0 in /  0.0 mm
07:22 44.1 °F /  6.7 °C 41.4 °F /  5.2 °C 29.9 in /  1013.1 hPa SW 7 mph /  11.3 km/h 15 mph /  24.1 km/h 90 % 0 in /  0.0 mm
07:27 44.1 °F /  6.7 °C 41.4 °F /  5.2 °C 29.9 in /  1013.1 hPa WSW 12 mph /  19.3 km/h 15 mph /  24.1 km/h 90 % 0 in /  0.0 mm
07:32 44.1 °F /  6.7 °C 41 °F /  5.0 °C 29.9 in /  1012.8 hPa SSW 8 mph /  12.9 km/h 15 mph /  24.1 km/h 89 % 0 in /  0.0 mm
07:37 44.1 °F /  6.7 °C 41 °F /  5.0 °C 29.9 in /  1012.8 hPa WSW 8 mph /  12.9 km/h 15 mph /  24.1 km/h 89 % 0 in /  0.0 mm
07:42 44.1 °F /  6.7 °C 41 °F /  5.0 °C 29.9 in /  1013.1 hPa WSW 6 mph /  9.7 km/h 14 mph /  22.5 km/h 89 % 0 in /  0.0 mm
07:47 44.1 °F /  6.7 °C 41.4 °F /  5.2 °C 29.9 in /  1012.8 hPa SSW 9 mph /  14.5 km/h 14 mph /  22.5 km/h 90 % 0 in /  0.0 mm
07:52 44.1 °F /  6.7 °C 41.4 °F /  5.2 °C 29.9 in /  1012.8 hPa WSW 13 mph /  20.9 km/h 15 mph /  24.1 km/h 90 % 0 in /  0.0 mm
07:57 44.1 °F /  6.7 °C 41.4 °F /  5.2 °C 29.9 in /  1012.8 hPa SSW 6 mph /  9.7 km/h 15 mph /  24.1 km/h 90 % 0 in /  0.0 mm
08:02 44.1 °F /  6.7 °C 41.4 °F /  5.2 °C 29.9 in /  1012.8 hPa SSW 9 mph /  14.5 km/h 15 mph /  24.1 km/h 90 % 0 in /  0.0 mm
08:07 44.1 °F /  6.7 °C 41 °F /  5.0 °C 29.9 in /  1012.8 hPa WSW 5 mph /  8.0 km/h 15 mph /  24.1 km/h 89 % 0 in /  0.0 mm
08:12 44.1 °F /  6.7 °C 41 °F /  5.0 °C 29.9 in /  1012.8 hPa SW 6 mph /  9.7 km/h 15 mph /  24.1 km/h 89 % 0 in /  0.0 mm
08:17 44.1 °F /  6.7 °C 41 °F /  5.0 °C 29.9 in /  1012.8 hPa SW 9 mph /  14.5 km/h 15 mph /  24.1 km/h 89 % 0 in /  0.0 mm
08:22 44.1 °F /  6.7 °C 41 °F /  5.0 °C 29.9 in /  1012.8 hPa SW 9 mph /  14.5 km/h 15 mph /  24.1 km/h 89 % 0 in /  0.0 mm
08:27 44.1 °F /  6.7 °C 40.8 °F /  4.9 °C 29.9 in /  1012.8 hPa SW 9 mph /  14.5 km/h 15 mph /  24.1 km/h 88 % 0 in /  0.0 mm
08:32 44.2 °F /  6.8 °C 41 °F /  5.0 °C 29.9 in /  1012.8 hPa SSW 10 mph /  16.1 km/h 15 mph /  24.1 km/h 88 % 0 in /  0.0 mm
08:37 44.2 °F /  6.8 °C 41 °F /  5.0 °C 29.9 in /  1012.8 hPa SW 5 mph /  8.0 km/h 15 mph /  24.1 km/h 88 % 0 in /  0.0 mm
08:42 44.2 °F /  6.8 °C 41 °F /  5.0 °C 29.9 in /  1012.8 hPa WSW 7 mph /  11.3 km/h 16 mph /  25.7 km/h 88 % 0 in /  0.0 mm
08:47 44.4 °F /  6.9 °C 41.2 °F /  5.1 °C 29.9 in /  1012.8 hPa WSW 4 mph /  6.4 km/h 16 mph /  25.7 km/h 88 % 0 in /  0.0 mm
08:52 44.4 °F /  6.9 °C 41.2 °F /  5.1 °C 29.9 in /  1012.8 hPa SSW 10 mph /  16.1 km/h 16 mph /  25.7 km/h 88 % 0 in /  0.0 mm
08:57 44.4 °F /  6.9 °C 41.2 °F /  5.1 °C 29.9 in /  1012.8 hPa SW 13 mph /  20.9 km/h 16 mph /  25.7 km/h 88 % 0 in /  0.0 mm
09:02 44.4 °F /  6.9 °C 41.2 °F /  5.1 °C 29.9 in /  1012.4 hPa WSW 5 mph /  8.0 km/h 14 mph /  22.5 km/h 88 % 0 in /  0.0 mm
09:07 44.4 °F /  6.9 °C 41.2 °F /  5.1 °C 29.9 in /  1012.4 hPa SW 5 mph /  8.0 km/h 14 mph /  22.5 km/h 88 % 0 in /  0.0 mm
09:12 44.4 °F /  6.9 °C 41.2 °F /  5.1 °C 29.9 in /  1012.4 hPa SW 8 mph /  12.9 km/h 15 mph /  24.1 km/h 88 % 0 in /  0.0 mm
09:17 44.6 °F /  7.0 °C 41.5 °F /  5.3 °C 29.9 in /  1012.4 hPa WSW 5 mph /  8.0 km/h 15 mph /  24.1 km/h 89 % 0 in /  0.0 mm
09:22 44.6 °F /  7.0 °C 41.2 °F /  5.1 °C 29.9 in /  1012.4 hPa SW 16 mph /  25.7 km/h 16 mph /  25.7 km/h 88 % 0 in /  0.0 mm
09:32 44.6 °F /  7.0 °C 41.2 °F /  5.1 °C 29.9 in /  1012.4 hPa WSW 7 mph /  11.3 km/h 17 mph /  27.4 km/h 88 % 0 in /  0.0 mm
09:42 44.6 °F /  7.0 °C 41.2 °F /  5.1 °C 29.9 in /  1012.4 hPa West 2 mph /  3.2 km/h 17 mph /  27.4 km/h 88 % 0 in /  0.0 mm
09:47 44.4 °F /  6.9 °C 40.8 °F /  4.9 °C 29.9 in /  1012.4 hPa SW 13 mph /  20.9 km/h 17 mph /  27.4 km/h 87 % 0 in /  0.0 mm
09:52 44.4 °F /  6.9 °C 40.8 °F /  4.9 °C 29.9 in /  1012.1 hPa WSW 12 mph /  19.3 km/h 17 mph /  27.4 km/h 87 % 0 in /  0.0 mm
09:57 44.4 °F /  6.9 °C 40.8 °F /  4.9 °C 29.9 in /  1012.1 hPa WSW 7 mph /  11.3 km/h 17 mph /  27.4 km/h 87 % 0 in /  0.0 mm
10:02 44.8 °F /  7.1 °C 41.2 °F /  5.1 °C 29.9 in /  1012.1 hPa SW 11 mph /  17.7 km/h 18 mph /  29.0 km/h 87 % 0 in /  0.0 mm
10:07 44.8 °F /  7.1 °C 41.2 °F /  5.1 °C 29.9 in /  1012.1 hPa SW 16 mph /  25.7 km/h 18 mph /  29.0 km/h 87 % 0 in /  0.0 mm
10:12 45 °F /  7.2 °C 41 °F /  5.0 °C 29.9 in /  1012.1 hPa SSW 9 mph /  14.5 km/h 18 mph /  29.0 km/h 86 % 0 in /  0.0 mm
10:17 45 °F /  7.2 °C 41 °F /  5.0 °C 29.9 in /  1012.1 hPa SW 11 mph /  17.7 km/h 18 mph /  29.0 km/h 86 % 0 in /  0.0 mm
10:22 45 °F /  7.2 °C 41 °F /  5.0 °C 29.9 in /  1012.1 hPa SW 12 mph /  19.3 km/h 19 mph /  30.6 km/h 86 % 0 in /  0.0 mm
10:27 45 °F /  7.2 °C 40.6 °F /  4.8 °C 29.9 in /  1012.1 hPa WSW 8 mph /  12.9 km/h 19 mph /  30.6 km/h 85 % 0 in /  0.0 mm
10:32 45.1 °F /  7.3 °C 41.2 °F /  5.1 °C 29.9 in /  1012.1 hPa WSW 12 mph /  19.3 km/h 24 mph /  38.6 km/h 86 % 0 in /  0.0 mm
10:37 45.3 °F /  7.4 °C 41 °F /  5.0 °C 29.9 in /  1012.1 hPa SW 2 mph /  3.2 km/h 24 mph /  38.6 km/h 85 % 0 in /  0.0 mm
10:42 45.5 °F /  7.5 °C 41.5 °F /  5.3 °C 29.9 in /  1012.1 hPa WSW 10 mph /  16.1 km/h 24 mph /  38.6 km/h 86 % 0 in /  0.0 mm
10:47 45.7 °F /  7.6 °C 41.4 °F /  5.2 °C 29.9 in /  1011.7 hPa SSW 7 mph /  11.3 km/h 24 mph /  38.6 km/h 85 % 0 in /  0.0 mm
10:52 45.9 °F /  7.7 °C 41.4 °F /  5.2 °C 29.9 in /  1011.7 hPa SW 14 mph /  22.5 km/h 20 mph /  32.2 km/h 84 % 0 in /  0.0 mm
10:57 46 °F /  7.8 °C 41.7 °F /  5.4 °C 29.9 in /  1011.7 hPa WSW 8 mph /  12.9 km/h 20 mph /  32.2 km/h 85 % 0 in /  0.0 mm
11:02 46 °F /  7.8 °C 41.5 °F /  5.3 °C 29.9 in /  1011.7 hPa West 16 mph /  25.7 km/h 21 mph /  33.8 km/h 84 % 0 in /  0.0 mm
11:07 45.9 °F /  7.7 °C 41.5 °F /  5.3 °C 29.9 in /  1011.7 hPa SW 13 mph /  20.9 km/h 21 mph /  33.8 km/h 85 % 0 in /  0.0 mm
11:12 46 °F /  7.8 °C 41.7 °F /  5.4 °C 29.9 in /  1011.7 hPa SW 13 mph /  20.9 km/h 22 mph /  35.4 km/h 85 % 0 in /  0.0 mm
11:17 46 °F /  7.8 °C 41.7 °F /  5.4 °C 29.9 in /  1011.7 hPa West 5 mph /  8.0 km/h 22 mph /  35.4 km/h 85 % 0 in /  0.0 mm
11:22 45.9 °F /  7.7 °C 41.4 °F /  5.2 °C 29.9 in /  1011.7 hPa West 13 mph /  20.9 km/h 22 mph /  35.4 km/h 84 % 0 in /  0.0 mm
11:27 45.9 °F /  7.7 °C 41 °F /  5.0 °C 29.9 in /  1011.7 hPa West 8 mph /  12.9 km/h 22 mph /  35.4 km/h 83 % 0 in /  0.0 mm
11:37 46 °F /  7.8 °C 41.5 °F /  5.3 °C 29.9 in /  1012.1 hPa West 16 mph /  25.7 km/h 23 mph /  37.0 km/h 84 % 0 in /  0.0 mm
11:42 46 °F /  7.8 °C 41.5 °F /  5.3 °C 29.9 in /  1012.1 hPa West 21 mph /  33.8 km/h 23 mph /  37.0 km/h 84 % 0 in /  0.0 mm
11:47 45.9 °F /  7.7 °C 41.4 °F /  5.2 °C 29.9 in /  1012.1 hPa West 7 mph /  11.3 km/h 23 mph /  37.0 km/h 84 % 0 in /  0.0 mm
11:52 45.7 °F /  7.6 °C 41.2 °F /  5.1 °C 29.9 in /  1012.1 hPa WSW 8 mph /  12.9 km/h 23 mph /  37.0 km/h 84 % 0 in /  0.0 mm
11:57 45.7 °F /  7.6 °C 41.4 °F /  5.2 °C 29.9 in /  1012.1 hPa West 10 mph /  16.1 km/h 21 mph /  33.8 km/h 85 % 0 in /  0.0 mm
12:02 45.9 °F /  7.7 °C 41.5 °F /  5.3 °C 29.9 in /  1012.1 hPa WSW 10 mph /  16.1 km/h 21 mph /  33.8 km/h 85 % 0 in /  0.0 mm
12:07 45.9 °F /  7.7 °C 41.5 °F /  5.3 °C 29.9 in /  1012.1 hPa SW 11 mph /  17.7 km/h 20 mph /  32.2 km/h 85 % 0 in /  0.0 mm
12:12 45.9 °F /  7.7 °C 41.5 °F /  5.3 °C 29.9 in /  1012.1 hPa SW 8 mph /  12.9 km/h 20 mph /  32.2 km/h 85 % 0 in /  0.0 mm
12:17 46 °F /  7.8 °C 41.7 °F /  5.4 °C 29.9 in /  1011.7 hPa SW 5 mph /  8.0 km/h 20 mph /  32.2 km/h 85 % 0 in /  0.0 mm
12:22 46 °F /  7.8 °C 41.7 °F /  5.4 °C 29.9 in /  1011.7 hPa South 5 mph /  8.0 km/h 24 mph /  38.6 km/h 85 % 0 in /  0.0 mm
12:27 46.2 °F /  7.9 °C 41.9 °F /  5.5 °C 29.9 in /  1011.7 hPa SW 18 mph /  29.0 km/h 24 mph /  38.6 km/h 85 % 0 in /  0.0 mm
12:32 46.2 °F /  7.9 °C 41.7 °F /  5.4 °C 29.9 in /  1011.4 hPa SW 23 mph /  37.0 km/h 24 mph /  38.6 km/h 84 % 0 in /  0.0 mm
12:37 46.4 °F /  8.0 °C 41.9 °F /  5.5 °C 29.9 in /  1011.7 hPa WSW 10 mph /  16.1 km/h 24 mph /  38.6 km/h 84 % 0 in /  0.0 mm
12:42 46.6 °F /  8.1 °C 42.3 °F /  5.7 °C 29.9 in /  1011.7 hPa WSW 8 mph /  12.9 km/h 26 mph /  41.8 km/h 85 % 0 in /  0.0 mm
12:52 46.6 °F /  8.1 °C 42.3 °F /  5.7 °C 29.9 in /  1011.7 hPa WSW 11 mph /  17.7 km/h 23 mph /  37.0 km/h 85 % 0 in /  0.0 mm
13:02 46.6 °F /  8.1 °C 42.3 °F /  5.7 °C 29.9 in /  1011.4 hPa SW 10 mph /  16.1 km/h 24 mph /  38.6 km/h 85 % 0 in /  0.0 mm
13:07 46.8 °F /  8.2 °C 42.4 °F /  5.8 °C 29.9 in /  1011.4 hPa West 16 mph /  25.7 km/h 23 mph /  37.0 km/h 85 % 0 in /  0.0 mm
13:12 46.8 °F /  8.2 °C 42.4 °F /  5.8 °C 29.9 in /  1011.4 hPa WSW 14 mph /  22.5 km/h 23 mph /  37.0 km/h 85 % 0 in /  0.0 mm
13:17 46.8 °F /  8.2 °C 42.4 °F /  5.8 °C 29.9 in /  1011.4 hPa WSW 16 mph /  25.7 km/h 22 mph /  35.4 km/h 85 % 0 in /  0.0 mm
13:22 46.8 °F /  8.2 °C 42.4 °F /  5.8 °C 29.9 in /  1011.4 hPa SW 8 mph /  12.9 km/h 22 mph /  35.4 km/h 85 % 0 in /  0.0 mm
13:32 46.9 °F /  8.3 °C 43 °F /  6.1 °C 29.9 in /  1011.1 hPa SSW 11 mph /  17.7 km/h 22 mph /  35.4 km/h 86 % 0 in /  0.0 mm
13:37 46.9 °F /  8.3 °C 43 °F /  6.1 °C 29.9 in /  1011.1 hPa SSW 17 mph /  27.4 km/h 21 mph /  33.8 km/h 86 % 0 in /  0.0 mm
13:42 47.1 °F /  8.4 °C 43.2 °F /  6.2 °C 29.8 in /  1010.7 hPa WSW 10 mph /  16.1 km/h 21 mph /  33.8 km/h 86 % 0 in /  0.0 mm
13:47 47.3 °F /  8.5 °C 43.3 °F /  6.3 °C 29.8 in /  1010.7 hPa WSW 10 mph /  16.1 km/h 22 mph /  35.4 km/h 86 % 0 in /  0.0 mm
13:52 47.5 °F /  8.6 °C 43.2 °F /  6.2 °C 29.8 in /  1010.7 hPa WSW 15 mph /  24.1 km/h 22 mph /  35.4 km/h 85 % 0 in /  0.0 mm
13:57 47.7 °F /  8.7 °C 43.3 °F /  6.3 °C 29.8 in /  1010.7 hPa SW 12 mph /  19.3 km/h 20 mph /  32.2 km/h 85 % 0 in /  0.0 mm
14:02 47.7 °F /  8.7 °C 43.3 °F /  6.3 °C 29.8 in /  1010.4 hPa SSW 4 mph /  6.4 km/h 20 mph /  32.2 km/h 85 % 0 in /  0.0 mm
14:07 47.7 °F /  8.7 °C 43.3 °F /  6.3 °C 29.8 in /  1010.4 hPa WSW 15 mph /  24.1 km/h 21 mph /  33.8 km/h 85 % 0 in /  0.0 mm
14:12 47.7 °F /  8.7 °C 43.3 °F /  6.3 °C 29.8 in /  1010.4 hPa WSW 9 mph /  14.5 km/h 21 mph /  33.8 km/h 85 % 0 in /  0.0 mm
14:17 47.7 °F /  8.7 °C 43.7 °F /  6.5 °C 29.8 in /  1010.4 hPa West 9 mph /  14.5 km/h 22 mph /  35.4 km/h 86 % 0 in /  0.0 mm
14:22 47.7 °F /  8.7 °C 43.3 °F /  6.3 °C 29.8 in /  1010.4 hPa West 10 mph /  16.1 km/h 22 mph /  35.4 km/h 85 % 0 in /  0.0 mm
14:32 47.8 °F /  8.8 °C 43.9 °F /  6.6 °C 29.8 in /  1010.4 hPa West 9 mph /  14.5 km/h 22 mph /  35.4 km/h 86 % 0 in /  0.0 mm
14:42 47.8 °F /  8.8 °C 43.9 °F /  6.6 °C 29.8 in /  1010.4 hPa West 12 mph /  19.3 km/h 21 mph /  33.8 km/h 86 % 0 in /  0.0 mm
14:47 47.8 °F /  8.8 °C 43.9 °F /  6.6 °C 29.8 in /  1010.0 hPa WSW 13 mph /  20.9 km/h 20 mph /  32.2 km/h 86 % 0 in /  0.0 mm
14:52 48 °F /  8.9 °C 43.7 °F /  6.5 °C 29.8 in /  1010.0 hPa SW 10 mph /  16.1 km/h 20 mph /  32.2 km/h 85 % 0 in /  0.0 mm
14:57 48.2 °F /  9.0 °C 43.9 °F /  6.6 °C 29.8 in /  1010.0 hPa WSW 13 mph /  20.9 km/h 20 mph /  32.2 km/h 85 % 0 in /  0.0 mm
15:02 48.4 °F /  9.1 °C 44.1 °F /  6.7 °C 29.8 in /  1009.7 hPa SSW 11 mph /  17.7 km/h 20 mph /  32.2 km/h 85 % 0 in /  0.0 mm
15:07 48.4 °F /  9.1 °C 44.1 °F /  6.7 °C 29.8 in /  1009.7 hPa SW 17 mph /  27.4 km/h 22 mph /  35.4 km/h 85 % 0 in /  0.0 mm
15:12 48.4 °F /  9.1 °C 44.1 °F /  6.7 °C 29.8 in /  1009.7 hPa West 8 mph /  12.9 km/h 22 mph /  35.4 km/h 85 % 0 in /  0.0 mm
15:17 48.4 °F /  9.1 °C 44.4 °F /  6.9 °C 29.8 in /  1009.4 hPa WSW 15 mph /  24.1 km/h 22 mph /  35.4 km/h 86 % 0 in /  0.0 mm
15:22 48.4 °F /  9.1 °C 44.4 °F /  6.9 °C 29.8 in /  1009.4 hPa SW 10 mph /  16.1 km/h 22 mph /  35.4 km/h 86 % 0 in /  0.0 mm
15:27 48.4 °F /  9.1 °C 44.1 °F /  6.7 °C 29.8 in /  1009.4 hPa SW 10 mph /  16.1 km/h 18 mph /  29.0 km/h 85 % 0 in /  0.0 mm
15:32 48.6 °F /  9.2 °C 44.2 °F /  6.8 °C 29.8 in /  1009.4 hPa WSW 12 mph /  19.3 km/h 18 mph /  29.0 km/h 85 % 0 in /  0.0 mm
15:37 48.6 °F /  9.2 °C 44.2 °F /  6.8 °C 29.8 in /  1009.4 hPa SW 9 mph /  14.5 km/h 22 mph /  35.4 km/h 85 % 0 in /  0.0 mm
15:42 48.6 °F /  9.2 °C 44.2 °F /  6.8 °C 29.8 in /  1009.4 hPa SSW 11 mph /  17.7 km/h 22 mph /  35.4 km/h 85 % 0 in /  0.0 mm
15:47 48.6 °F /  9.2 °C 44.6 °F /  7.0 °C 29.8 in /  1009.4 hPa WSW 17 mph /  27.4 km/h 23 mph /  37.0 km/h 86 % 0 in /  0.0 mm
15:52 48.6 °F /  9.2 °C 44.6 °F /  7.0 °C 29.8 in /  1009.4 hPa SW 13 mph /  20.9 km/h 23 mph /  37.0 km/h 86 % 0 in /  0.0 mm
15:57 48.6 °F /  9.2 °C 44.6 °F /  7.0 °C 29.8 in /  1009.4 hPa SW 15 mph /  24.1 km/h 30 mph /  48.3 km/h 86 % 0 in /  0.0 mm
16:02 48.6 °F /  9.2 °C 44.6 °F /  7.0 °C 29.8 in /  1009.4 hPa WSW 11 mph /  17.7 km/h 30 mph /  48.3 km/h 86 % 0 in /  0.0 mm
16:07 48.6 °F /  9.2 °C 44.6 °F /  7.0 °C 29.8 in /  1009.4 hPa SW 13 mph /  20.9 km/h 25 mph /  40.2 km/h 86 % 0 in /  0.0 mm
16:12 48.4 °F /  9.1 °C 44.8 °F /  7.1 °C 29.8 in /  1009.4 hPa West 10 mph /  16.1 km/h 25 mph /  40.2 km/h 87 % 0 in /  0.0 mm
16:17 48.4 °F /  9.1 °C 44.8 °F /  7.1 °C 29.8 in /  1009.4 hPa West 9 mph /  14.5 km/h 25 mph /  40.2 km/h 87 % 0 in /  0.0 mm
16:22 48 °F /  8.9 °C 44.6 °F /  7.0 °C 29.8 in /  1009.4 hPa SW 16 mph /  25.7 km/h 25 mph /  40.2 km/h 88 % 0 in /  0.0 mm
16:32 47.7 °F /  8.7 °C 45 °F /  7.2 °C 29.8 in /  1009.4 hPa SW 13 mph /  20.9 km/h 23 mph /  37.0 km/h 90 % 0 in /  0.0 mm
16:42 47.1 °F /  8.4 °C 45 °F /  7.2 °C 29.8 in /  1009.4 hPa WSW 11 mph /  17.7 km/h 26 mph /  41.8 km/h 92 % 0 in /  0.0 mm
16:47 47.1 °F /  8.4 °C 45.1 °F /  7.3 °C 29.8 in /  1009.4 hPa SW 15 mph /  24.1 km/h 22 mph /  35.4 km/h 93 % 0 in /  0.0 mm
16:52 46.9 °F /  8.3 °C 45 °F /  7.2 °C 29.8 in /  1009.4 hPa SW 10 mph /  16.1 km/h 22 mph /  35.4 km/h 93 % 0 in /  0.0 mm
16:57 46.9 °F /  8.3 °C 45 °F /  7.2 °C 29.8 in /  1009.4 hPa WSW 15 mph /  24.1 km/h 21 mph /  33.8 km/h 93 % 0 in /  0.0 mm
17:02 46.9 °F /  8.3 °C 45 °F /  7.2 °C 29.8 in /  1009.4 hPa SW 11 mph /  17.7 km/h 21 mph /  33.8 km/h 93 % 0 in /  0.0 mm
17:07 46.9 °F /  8.3 °C 45 °F /  7.2 °C 29.8 in /  1009.4 hPa WSW 19 mph /  30.6 km/h 22 mph /  35.4 km/h 93 % 0 in /  0.0 mm
17:12 46.9 °F /  8.3 °C 45 °F /  7.2 °C 29.8 in /  1009.4 hPa SW 11 mph /  17.7 km/h 22 mph /  35.4 km/h 93 % 0 in /  0.0 mm
17:17 46.9 °F /  8.3 °C 45.3 °F /  7.4 °C 29.8 in /  1009.4 hPa SW 5 mph /  8.0 km/h 24 mph /  38.6 km/h 94 % 0 in /  0.0 mm
17:22 46.9 °F /  8.3 °C 45.3 °F /  7.4 °C 29.8 in /  1009.4 hPa SW 10 mph /  16.1 km/h 24 mph /  38.6 km/h 94 % 0 in /  0.0 mm
17:27 46.9 °F /  8.3 °C 45.3 °F /  7.4 °C 29.8 in /  1009.4 hPa WSW 7 mph /  11.3 km/h 17 mph /  27.4 km/h 94 % 0 in /  0.0 mm
17:32 46.9 °F /  8.3 °C 45.3 °F /  7.4 °C 29.8 in /  1009.4 hPa SSW 8 mph /  12.9 km/h 17 mph /  27.4 km/h 94 % 0 in /  0.0 mm
17:37 46.9 °F /  8.3 °C 45.3 °F /  7.4 °C 29.8 in /  1009.4 hPa WSW 13 mph /  20.9 km/h 21 mph /  33.8 km/h 94 % 0 in /  0.0 mm
17:42 46.9 °F /  8.3 °C 45.3 °F /  7.4 °C 29.8 in /  1009.4 hPa SSW 8 mph /  12.9 km/h 21 mph /  33.8 km/h 94 % 0 in /  0.0 mm
17:47 46.9 °F /  8.3 °C 45.3 °F /  7.4 °C 29.8 in /  1009.4 hPa SW 8 mph /  12.9 km/h 19 mph /  30.6 km/h 94 % 0 in /  0.0 mm
17:52 46.8 °F /  8.2 °C 45.1 °F /  7.3 °C 29.8 in /  1009.4 hPa SW 10 mph /  16.1 km/h 19 mph /  30.6 km/h 94 % 0 in /  0.0 mm
17:57 46.8 °F /  8.2 °C 45.1 °F /  7.3 °C 29.8 in /  1009.4 hPa SW 11 mph /  17.7 km/h 20 mph /  32.2 km/h 94 % 0 in /  0.0 mm
18:02 46.8 °F /  8.2 °C 45.1 °F /  7.3 °C 29.8 in /  1009.4 hPa SW 14 mph /  22.5 km/h 20 mph /  32.2 km/h 94 % 0 in /  0.0 mm
18:12 46.8 °F /  8.2 °C 45.3 °F /  7.4 °C 29.8 in /  1009.7 hPa WSW 6 mph /  9.7 km/h 20 mph /  32.2 km/h 95 % 0 in /  0.0 mm
18:17 46.8 °F /  8.2 °C 45.3 °F /  7.4 °C 29.8 in /  1009.7 hPa SW 8 mph /  12.9 km/h 20 mph /  32.2 km/h 95 % 0 in /  0.0 mm
18:22 46.8 °F /  8.2 °C 45.3 °F /  7.4 °C 29.8 in /  1009.7 hPa SW 7 mph /  11.3 km/h 20 mph /  32.2 km/h 95 % 0 in /  0.0 mm
18:32 46.8 °F /  8.2 °C 45.3 °F /  7.4 °C 29.8 in /  1009.7 hPa SW 6 mph /  9.7 km/h 20 mph /  32.2 km/h 95 % 0 in /  0.0 mm
18:37 46.8 °F /  8.2 °C 45.3 °F /  7.4 °C 29.8 in /  1009.7 hPa WSW 13 mph /  20.9 km/h 20 mph /  32.2 km/h 95 % 0 in /  0.0 mm
18:42 46.8 °F /  8.2 °C 45.3 °F /  7.4 °C 29.8 in /  1010.0 hPa WSW 7 mph /  11.3 km/h 19 mph /  30.6 km/h 95 % 0.01 in /  0.3 mm
18:52 46.8 °F /  8.2 °C 45.3 °F /  7.4 °C 29.8 in /  1010.0 hPa WNW 8 mph /  12.9 km/h 16 mph /  25.7 km/h 95 % 0.01 in /  0.3 mm
18:57 46.9 °F /  8.3 °C 45.5 °F /  7.5 °C 29.8 in /  1010.0 hPa SW 6 mph /  9.7 km/h 18 mph /  29.0 km/h 95 % 0.01 in /  0.3 mm
19:02 46.9 °F /  8.3 °C 45.5 °F /  7.5 °C 29.8 in /  1010.0 hPa SW 11 mph /  17.7 km/h 18 mph /  29.0 km/h 95 % 0.01 in /  0.3 mm
19:07 46.9 °F /  8.3 °C 45.5 °F /  7.5 °C 29.8 in /  1010.0 hPa West 5 mph /  8.0 km/h 19 mph /  30.6 km/h 95 % 0.02 in /  0.5 mm
19:12 46.9 °F /  8.3 °C 45.5 °F /  7.5 °C 29.8 in /  1010.0 hPa SW 4 mph /  6.4 km/h 19 mph /  30.6 km/h 95 % 0.02 in /  0.5 mm
19:17 47.1 °F /  8.4 °C 45.7 °F /  7.6 °C 29.8 in /  1010.0 hPa WSW 10 mph /  16.1 km/h 20 mph /  32.2 km/h 95 % 0.02 in /  0.5 mm
19:22 47.1 °F /  8.4 °C 45.7 °F /  7.6 °C 29.8 in /  1010.4 hPa SW 6 mph /  9.7 km/h 20 mph /  32.2 km/h 95 % 0.02 in /  0.5 mm
19:42 47.3 °F /  8.5 °C 45.9 °F /  7.7 °C 29.8 in /  1010.4 hPa WSW 5 mph /  8.0 km/h 17 mph /  27.4 km/h 95 % 0.01 in /  0.3 mm
19:52 47.5 °F /  8.6 °C 46 °F /  7.8 °C 29.8 in /  1010.4 hPa SW 7 mph /  11.3 km/h 14 mph /  22.5 km/h 95 % 0.01 in /  0.3 mm
19:57 47.7 °F /  8.7 °C 46.2 °F /  7.9 °C 29.8 in /  1010.4 hPa WSW 5 mph /  8.0 km/h 13 mph /  20.9 km/h 95 % 0.01 in /  0.3 mm
20:02 47.7 °F /  8.7 °C 46.2 °F /  7.9 °C 29.8 in /  1010.7 hPa SSW 4 mph /  6.4 km/h 13 mph /  20.9 km/h 95 % 0.01 in /  0.3 mm
20:07 47.7 °F /  8.7 °C 46.2 °F /  7.9 °C 29.8 in /  1010.7 hPa West 8 mph /  12.9 km/h 15 mph /  24.1 km/h 95 % 0 in /  0.0 mm
20:12 47.8 °F /  8.8 °C 46.4 °F /  8.0 °C 29.8 in /  1010.4 hPa WSW 6 mph /  9.7 km/h 15 mph /  24.1 km/h 95 % 0 in /  0.0 mm
20:17 47.8 °F /  8.8 °C 46.4 °F /  8.0 °C 29.8 in /  1010.7 hPa SW 11 mph /  17.7 km/h 16 mph /  25.7 km/h 95 % 0 in /  0.0 mm
20:22 47.8 °F /  8.8 °C 46.4 °F /  8.0 °C 29.8 in /  1010.7 hPa WSW 12 mph /  19.3 km/h 16 mph /  25.7 km/h 95 % 0 in /  0.0 mm
20:27 47.8 °F /  8.8 °C 46.4 °F /  8.0 °C 29.8 in /  1010.7 hPa West 4 mph /  6.4 km/h 16 mph /  25.7 km/h 95 % 0.01 in /  0.3 mm
20:32 48 °F /  8.9 °C 46.6 °F /  8.1 °C 29.9 in /  1011.1 hPa WNW 6 mph /  9.7 km/h 16 mph /  25.7 km/h 95 % 0.01 in /  0.3 mm
20:37 48 °F /  8.9 °C 46.6 °F /  8.1 °C 29.9 in /  1011.1 hPa WSW 14 mph /  22.5 km/h 16 mph /  25.7 km/h 95 % 0.06 in /  1.5 mm
20:42 48 °F /  8.9 °C 46.6 °F /  8.1 °C 29.9 in /  1011.1 hPa WNW 5 mph /  8.0 km/h 16 mph /  25.7 km/h 95 % 0.06 in /  1.5 mm
20:52 48.2 °F /  9.0 °C 46.6 °F /  8.1 °C 29.9 in /  1011.1 hPa West 5 mph /  8.0 km/h 15 mph /  24.1 km/h 94 % 0.09 in /  2.3 mm
20:57 48 °F /  8.9 °C 46.4 °F /  8.0 °C 29.9 in /  1011.1 hPa WNW 6 mph /  9.7 km/h 14 mph /  22.5 km/h 94 % 0.1 in /  2.5 mm
21:02 48 °F /  8.9 °C 46.4 °F /  8.0 °C 29.9 in /  1011.4 hPa West 4 mph /  6.4 km/h 14 mph /  22.5 km/h 94 % 0.1 in /  2.5 mm
21:07 47.8 °F /  8.8 °C 45.7 °F /  7.6 °C 29.9 in /  1011.4 hPa WNW 6 mph /  9.7 km/h 13 mph /  20.9 km/h 92 % 0.12 in /  3.0 mm
21:12 47.7 °F /  8.7 °C 45.7 °F /  7.6 °C 29.9 in /  1011.4 hPa NNE 2 mph /  3.2 km/h 13 mph /  20.9 km/h 93 % 0.12 in /  3.0 mm
21:17 47.5 °F /  8.6 °C 44.8 °F /  7.1 °C 29.9 in /  1011.4 hPa WNW 8 mph /  12.9 km/h 13 mph /  20.9 km/h 90 % 0.13 in /  3.3 mm
21:22 47.5 °F /  8.6 °C 45 °F /  7.2 °C 29.9 in /  1011.4 hPa WNW 7 mph /  11.3 km/h 13 mph /  20.9 km/h 91 % 0.13 in /  3.3 mm
21:32 47.7 °F /  8.7 °C 45 °F /  7.2 °C 29.9 in /  1011.7 hPa WNW 13 mph /  20.9 km/h 13 mph /  20.9 km/h 90 % 0.13 in /  3.3 mm
21:37 47.7 °F /  8.7 °C 45 °F /  7.2 °C 29.9 in /  1011.4 hPa West 6 mph /  9.7 km/h 16 mph /  25.7 km/h 90 % 0.06 in /  1.5 mm
21:42 47.7 °F /  8.7 °C 45 °F /  7.2 °C 29.9 in /  1011.7 hPa WNW 5 mph /  8.0 km/h 16 mph /  25.7 km/h 90 % 0.06 in /  1.5 mm
21:47 47.5 °F /  8.6 °C 44.8 °F /  7.1 °C 29.9 in /  1011.7 hPa WNW 4 mph /  6.4 km/h 15 mph /  24.1 km/h 90 % 0.05 in /  1.3 mm
21:57 47.8 °F /  8.8 °C 44.2 °F /  6.8 °C 29.9 in /  1011.7 hPa WNW 5 mph /  8.0 km/h 10 mph /  16.1 km/h 87 % 0.05 in /  1.3 mm
22:07 47.7 °F /  8.7 °C 44.1 °F /  6.7 °C 29.9 in /  1011.7 hPa WNW 4 mph /  6.4 km/h 10 mph /  16.1 km/h 87 % 0.02 in /  0.5 mm
22:12 47.3 °F /  8.5 °C 43.9 °F /  6.6 °C 29.9 in /  1011.7 hPa West 1 mph /  1.6 km/h 10 mph /  16.1 km/h 88 % 0.02 in /  0.5 mm
22:22 47.1 °F /  8.4 °C 44.4 °F /  6.9 °C 29.9 in /  1011.7 hPa WNW 2 mph /  3.2 km/h 8 mph /  12.9 km/h 90 % 0.02 in /  0.5 mm
22:27 46.9 °F /  8.3 °C 44.2 °F /  6.8 °C 29.9 in /  1012.1 hPa WSW 2 mph /  3.2 km/h 5 mph /  8.0 km/h 90 % 0.01 in /  0.3 mm
22:32 46.9 °F /  8.3 °C 44.2 °F /  6.8 °C 29.9 in /  1012.1 hPa West 1 mph /  1.6 km/h 5 mph /  8.0 km/h 90 % 0.01 in /  0.3 mm
22:37 47.1 °F /  8.4 °C 44.1 °F /  6.7 °C 29.9 in /  1012.1 hPa WNW 6 mph /  9.7 km/h 10 mph /  16.1 km/h 89 % 0 in /  0.0 mm
22:42 47.1 °F /  8.4 °C 43.7 °F /  6.5 °C 29.9 in /  1012.1 hPa West 4 mph /  6.4 km/h 10 mph /  16.1 km/h 88 % 0 in /  0.0 mm
22:47 47.1 °F /  8.4 °C 43.7 °F /  6.5 °C 29.9 in /  1012.1 hPa WNW 4 mph /  6.4 km/h 10 mph /  16.1 km/h 88 % 0 in /  0.0 mm
22:52 46.9 °F /  8.3 °C 43.3 °F /  6.3 °C 29.9 in /  1012.1 hPa WNW 2 mph /  3.2 km/h 10 mph /  16.1 km/h 87 % 0 in /  0.0 mm
22:57 46.9 °F /  8.3 °C 43.3 °F /  6.3 °C 29.9 in /  1012.4 hPa WSW 6 mph /  9.7 km/h 8 mph /  12.9 km/h 87 % 0 in /  0.0 mm
23:02 46.9 °F /  8.3 °C 43 °F /  6.1 °C 29.9 in /  1012.1 hPa West 6 mph /  9.7 km/h 8 mph /  12.9 km/h 86 % 0 in /  0.0 mm
23:07 46.9 °F /  8.3 °C 42.4 °F /  5.8 °C 29.9 in /  1012.4 hPa WNW 4 mph /  6.4 km/h 11 mph /  17.7 km/h 84 % 0 in /  0.0 mm
23:12 46.8 °F /  8.2 °C 42.3 °F /  5.7 °C 29.9 in /  1012.4 hPa West 5 mph /  8.0 km/h 11 mph /  17.7 km/h 84 % 0 in /  0.0 mm
23:17 46.6 °F /  8.1 °C 42.1 °F /  5.6 °C 29.9 in /  1012.4 hPa WNW 5 mph /  8.0 km/h 11 mph /  17.7 km/h 84 % 0 in /  0.0 mm
23:22 46.6 °F /  8.1 °C 42.3 °F /  5.7 °C 29.9 in /  1012.4 hPa West 1 mph /  1.6 km/h 11 mph /  17.7 km/h 85 % 0 in /  0.0 mm
23:27 46.4 °F /  8.0 °C 42.1 °F /  5.6 °C 29.9 in /  1012.4 hPa West 6 mph /  9.7 km/h 8 mph /  12.9 km/h 85 % 0 in /  0.0 mm
23:32 46.2 °F /  7.9 °C 40.5 °F /  4.7 °C 29.9 in /  1012.4 hPa West 11 mph /  17.7 km/h 11 mph /  17.7 km/h 80 % 0 in /  0.0 mm
23:42 46 °F /  7.8 °C 40.3 °F /  4.6 °C 29.9 in /  1012.8 hPa NW 7 mph /  11.3 km/h 18 mph /  29.0 km/h 80 % 0 in /  0.0 mm
23:47 45.7 °F /  7.6 °C 39.9 °F /  4.4 °C 29.9 in /  1012.8 hPa West 6 mph /  9.7 km/h 18 mph /  29.0 km/h 80 % 0 in /  0.0 mm
23:52 45.5 °F /  7.5 °C 40.1 °F /  4.5 °C 29.9 in /  1012.8 hPa WNW 4 mph /  6.4 km/h 18 mph /  29.0 km/h 81 % 0 in /  0.0 mm
23:57 45.3 °F /  7.4 °C 39.9 °F /  4.4 °C 29.9 in /  1012.8 hPa WSW 4 mph /  6.4 km/h 11 mph /  17.7 km/h 81 % 0 in /  0.0 mm
Meteo18
Compliments of Weather Underground - 4 mb

Script developed by  Jim McMurry - jmcmurry@mwt.net Adapted for the template by  Wim van der Kuil - Leuven-Template.eu

You find our weather info also at:

European Weather Network

Weather Underground

Equipment we use:

Weather-station
Davis Vue

Weather-program
Meteohub

Weather-server
Raspberry PI 2 B+

Provider
1 and 1

Davis Vue

Meteohub

Raspberry PI 2 B+

1 and 1